Flight Track Log - Related Links

Times and Time Zones

All times are in EST time to prevent confusion due to time zone crossing. See the VOODOO1 flight status page for this flight to view local times or setup timezone preferences in your user account.

Time Position Orientation Groundspeed Altitude Reporting Facility
EST Latitude Longitude Course Direction KTS MPH feet Rate Location/Type
Thu 10:29:15 AM 32.1008 -110.9228 193° South 287 330 3,200  Level Albuquerque Center
Thu 10:30:09 AM 32.0500 -110.9367 193° South 309 356 6,700 2,257 Climbing Albuquerque Center
Thu 10:31:04 AM 32.0606 -111.0344 277° West 322 371 7,300 571 Climbing Albuquerque Center
Thu 10:31:12 AM 32.0611 -111.0336 52° Northeast 325 374 7,300 778 Level Albuquerque Center
Thu 10:31:58 AM 32.0711 -111.1322 277° West 324 373 8,000 774 Climbing Albuquerque Center
Thu 10:32:14 AM 32.0736 -111.1389 294° West 325 374 8,100  Climbing Albuquerque Center
Thu 10:33:15 AM 32.0861 -111.2453 278° West 325 374 8,000 390 Descending Albuquerque Center
Thu 10:34:17 AM 32.1003 -111.3542 279° West 329 379 8,900 581 Climbing Albuquerque Center
Thu 10:35:19 AM 32.1133 -111.4919 276° West 345 397 9,200 1,306 Climbing Albuquerque Center
Thu 10:36:21 AM 32.1200 -111.6286 273° West 384 442 11,600 Climbing Albuquerque Center
Thu 11:29:40 AM 32.5081 -111.6131 North 368 423 9,700 -59 Descending Albuquerque Center
Thu 11:30:47 AM 32.4658 -111.4803 111° Southeast 377 434 8,400 -1,164 Descending Albuquerque Center
Thu 11:31:54 AM 32.4308 -111.3533 108° East 378 435 7,100 -738 Descending Albuquerque Center
Thu 11:32:49 AM 32.3875 -111.2617 119° Southeast 347 399 6,900 -397 Descending Albuquerque Center
Thu 11:33:55 AM 32.3175 -111.1769 134° Southeast 313 360 6,300 -520 Descending Albuquerque Center
Thu 11:34:56 AM 32.2594 -111.1092 135° Southeast 298 343 5,800 -621 Descending Albuquerque Center
Thu 11:35:51 AM 32.2089 -111.0472 134° Southeast 285 328 5,100 -1,034 Descending Albuquerque Center
Thu 11:36:52 AM 32.1675 -111.0006 136° Southeast 211 243 3,800 -1,131 Descending Albuquerque Center
Thu 11:37:53 AM 32.1317 -110.9597 136° Southeast 180 207 2,800  Descending Albuquerque Center
Thu 11:38:36 AM 32.1050 -110.9217 130° Southeast 137 158 3,800 659 Climbing Albuquerque Center
Thu 11:39:24 AM 32.1508 -110.9472 335° Northwest 245 282 3,800 -661 Level Albuquerque Center
Thu 11:40:25 AM 32.1225 -110.9447 176° South 209 241 2,600 -157 Descending Albuquerque Center
Thu 11:47:42 AM 32.1308 -110.9550 314° West 3 3 2,500 -14 Descending Albuquerque Center

Login

Don't have an account? Register now (free) for customized features, flight alerts, and more!